Hauptseite
METAR-TAF:

METAR-TAF

Flughäfen :

Aberdeen, Maryland, Vereinigte Staaten

Breite: 39-28N, Länge: 076-10W, Höhe: 18 m

Beobachtung

Neuester Wetterbericht von vor 1 Stunde und 11 Minuten, um 01:58 UTC
Wind 6 kt aus Ost
Temperatur 18°C
Luftfeuchtigkeit 77%
Luftdruck 1023 hPa
Sichtweite: 16.1 km
Geschlossene Wolkendecke in der Höhe von 2600 ft

METAR: KAPG 250158Z AUTO 10006KT 10SM OVC026 18/14 A3021 RMK AO2 SLP233 T01750137 PNO TSNO $

Zeit: 23:09 (03:09 UTC)


TAF: fehlend

Wetterbeobachtungen und Prognosen von mehr als 4000 Flughäfen (METAR und TAF Bericht).

Die verfügbaren Stationen werden durch gelbe und rote Markierungen auf der Karte dargestellt.

Führen Sie die Maus auf sie, um den Namen der Station zu sehen.

Darauf klicken, um die Beobachtung von Wetterbeobachtungen und Prognosen zu sehen.

Um die Karte zu ändern : klicken Sie auf den grünen Tasten mit einem schwarzen Kreuz Zum Vergrößern, auf den grünen Button mit einem Gedankenstrich zu verkleinern, oder auf die grünen Pfeile für benachbarte Karten.


METAR-TAF: